sensor_id;sensor_type;location;lat;lon;timestamp;P1;durP1;ratioP1;P2;durP2;ratioP2
10248;SDS011;5169;50.560;9.714;2023-06-22T00:01:23;63.77;;;59.63;;
10248;SDS011;5169;50.560;9.714;2023-06-22T00:03:53;75.87;;;71.07;;
10248;SDS011;5169;50.560;9.714;2023-06-22T00:06:19;63.70;;;59.80;;
10248;SDS011;5169;50.560;9.714;2023-06-22T00:08:45;58.03;;;54.47;;
10248;SDS011;5169;50.560;9.714;2023-06-22T00:11:17;63.67;;;59.57;;
10248;SDS011;5169;50.560;9.714;2023-06-22T00:13:45;69.47;;;64.97;;
10248;SDS011;5169;50.560;9.714;2023-06-22T00:16:12;60.17;;;56.10;;
10248;SDS011;5169;50.560;9.714;2023-06-22T00:18:44;83.37;;;77.80;;
10248;SDS011;5169;50.560;9.714;2023-06-22T00:21:12;75.10;;;70.13;;
10248;SDS011;5169;50.560;9.714;2023-06-22T00:23:41;83.93;;;78.33;;
10248;SDS011;5169;50.560;9.714;2023-06-22T00:26:10;69.87;;;65.27;;
10248;SDS011;5169;50.560;9.714;2023-06-22T00:28:36;63.90;;;59.70;;
10248;SDS011;5169;50.560;9.714;2023-06-22T00:31:06;55.57;;;52.03;;
10248;SDS011;5169;50.560;9.714;2023-06-22T00:33:34;62.80;;;58.57;;
10248;SDS011;5169;50.560;9.714;2023-06-22T00:36:06;65.10;;;60.77;;
10248;SDS011;5169;50.560;9.714;2023-06-22T00:38:38;42.23;;;39.60;;
10248;SDS011;5169;50.560;9.714;2023-06-22T00:41:05;70.27;;;65.63;;
10248;SDS011;5169;50.560;9.714;2023-06-22T00:43:35;60.60;;;56.60;;
10248;SDS011;5169;50.560;9.714;2023-06-22T00:46:00;50.53;;;47.27;;
10248;SDS011;5169;50.560;9.714;2023-06-22T00:48:28;54.73;;;51.13;;
10248;SDS011;5169;50.560;9.714;2023-06-22T00:50:54;53.37;;;49.90;;
10248;SDS011;5169;50.560;9.714;2023-06-22T00:53:26;58.33;;;54.53;;
10248;SDS011;5169;50.560;9.714;2023-06-22T00:55:51;58.63;;;54.73;;
10248;SDS011;5169;50.560;9.714;2023-06-22T00:58:17;52.33;;;48.73;;
10248;SDS011;5169;50.560;9.714;2023-06-22T01:00:46;57.03;;;53.30;;
10248;SDS011;5169;50.560;9.714;2023-06-22T01:03:13;57.57;;;53.37;;
10248;SDS011;5169;50.560;9.714;2023-06-22T01:05:39;62.83;;;58.43;;
10248;SDS011;5169;50.560;9.714;2023-06-22T01:16:20;91.07;;;84.57;;
10248;SDS011;5169;50.560;9.714;2023-06-22T01:18:57;98.07;;;90.80;;
10248;SDS011;5169;50.560;9.714;2023-06-22T01:21:39;92.20;;;85.53;;
10248;SDS011;5169;50.560;9.714;2023-06-22T01:24:10;98.30;;;91.33;;
10248;SDS011;5169;50.560;9.714;2023-06-22T01:29:11;82.07;;;76.37;;
10248;SDS011;5169;50.560;9.714;2023-06-22T01:31:41;95.50;;;88.53;;
10248;SDS011;5169;50.560;9.714;2023-06-22T01:34:09;102.60;;;95.00;;
10248;SDS011;5169;50.560;9.714;2023-06-22T01:36:39;88.47;;;82.03;;
10248;SDS011;5169;50.560;9.714;2023-06-22T01:39:06;83.70;;;77.73;;
10248;SDS011;5169;50.560;9.714;2023-06-22T01:41:35;93.43;;;86.23;;
10248;SDS011;5169;50.560;9.714;2023-06-22T01:44:07;89.87;;;83.10;;
10248;SDS011;5169;50.560;9.714;2023-06-22T01:46:34;90.47;;;83.77;;
10248;SDS011;5169;50.560;9.714;2023-06-22T01:49:03;83.53;;;77.60;;
10248;SDS011;5169;50.560;9.714;2023-06-22T01:51:30;95.07;;;87.90;;
10248;SDS011;5169;50.560;9.714;2023-06-22T01:53:56;86.10;;;79.80;;
10248;SDS011;5169;50.560;9.714;2023-06-22T01:56:31;69.03;;;64.07;;
10248;SDS011;5169;50.560;9.714;2023-06-22T01:59:01;84.07;;;78.17;;
10248;SDS011;5169;50.560;9.714;2023-06-22T02:01:43;93.83;;;86.63;;
10248;SDS011;5169;50.560;9.714;2023-06-22T02:04:22;93.57;;;86.50;;
10248;SDS011;5169;50.560;9.714;2023-06-22T02:07:09;89.60;;;82.50;;
10248;SDS011;5169;50.560;9.714;2023-06-22T02:09:43;98.57;;;90.47;;
10248;SDS011;5169;50.560;9.714;2023-06-22T02:12:11;89.63;;;82.70;;
10248;SDS011;5169;50.560;9.714;2023-06-22T02:14:46;91.17;;;83.93;;
10248;SDS011;5169;50.560;9.714;2023-06-22T02:17:18;94.30;;;86.80;;
10248;SDS011;5169;50.560;9.714;2023-06-22T02:19:44;101.57;;;93.30;;
10248;SDS011;5169;50.560;9.714;2023-06-22T02:22:10;93.03;;;85.73;;
10248;SDS011;5169;50.560;9.714;2023-06-22T02:24:40;91.77;;;84.53;;
10248;SDS011;5169;50.560;9.714;2023-06-22T02:27:08;92.33;;;85.37;;
10248;SDS011;5169;50.560;9.714;2023-06-22T02:29:35;102.47;;;94.47;;
10248;SDS011;5169;50.560;9.714;2023-06-22T02:32:09;87.30;;;80.60;;
10248;SDS011;5169;50.560;9.714;2023-06-22T02:34:35;74.90;;;69.33;;
10248;SDS011;5169;50.560;9.714;2023-06-22T02:37:07;90.70;;;83.73;;
10248;SDS011;5169;50.560;9.714;2023-06-22T02:39:35;94.17;;;86.97;;
10248;SDS011;5169;50.560;9.714;2023-06-22T02:42:07;93.77;;;86.60;;
10248;SDS011;5169;50.560;9.714;2023-06-22T02:44:41;81.10;;;74.90;;
10248;SDS011;5169;50.560;9.714;2023-06-22T02:47:09;87.47;;;80.93;;
10248;SDS011;5169;50.560;9.714;2023-06-22T02:49:34;90.07;;;83.07;;
10248;SDS011;5169;50.560;9.714;2023-06-22T02:52:00;88.63;;;81.73;;
10248;SDS011;5169;50.560;9.714;2023-06-22T02:54:27;86.10;;;79.47;;
10248;SDS011;5169;50.560;9.714;2023-06-22T02:56:53;71.53;;;66.33;;
10248;SDS011;5169;50.560;9.714;2023-06-22T02:59:19;81.07;;;74.97;;
10248;SDS011;5169;50.560;9.714;2023-06-22T03:01:48;80.93;;;75.00;;
10248;SDS011;5169;50.560;9.714;2023-06-22T03:04:20;82.13;;;75.67;;
10248;SDS011;5169;50.560;9.714;2023-06-22T03:06:46;86.50;;;80.10;;
10248;SDS011;5169;50.560;9.714;2023-06-22T03:09:17;88.37;;;81.77;;
10248;SDS011;5169;50.560;9.714;2023-06-22T03:11:43;91.93;;;85.10;;
10248;SDS011;5169;50.560;9.714;2023-06-22T03:14:10;93.10;;;86.10;;
10248;SDS011;5169;50.560;9.714;2023-06-22T03:16:41;83.20;;;77.07;;
10248;SDS011;5169;50.560;9.714;2023-06-22T03:19:07;84.70;;;78.50;;
10248;SDS011;5169;50.560;9.714;2023-06-22T03:21:32;82.97;;;76.83;;
10248;SDS011;5169;50.560;9.714;2023-06-22T03:23:58;95.00;;;87.90;;
10248;SDS011;5169;50.560;9.714;2023-06-22T03:26:23;86.47;;;79.97;;
10248;SDS011;5169;50.560;9.714;2023-06-22T03:28:54;89.33;;;82.80;;
10248;SDS011;5169;50.560;9.714;2023-06-22T03:31:20;84.93;;;78.90;;
10248;SDS011;5169;50.560;9.714;2023-06-22T03:33:47;69.67;;;64.67;;
10248;SDS011;5169;50.560;9.714;2023-06-22T03:36:14;81.47;;;75.47;;
10248;SDS011;5169;50.560;9.714;2023-06-22T03:38:46;83.07;;;77.07;;
10248;SDS011;5169;50.560;9.714;2023-06-22T03:41:12;76.27;;;70.67;;
10248;SDS011;5169;50.560;9.714;2023-06-22T03:43:44;71.50;;;66.47;;
10248;SDS011;5169;50.560;9.714;2023-06-22T03:46:10;85.17;;;78.87;;
10248;SDS011;5169;50.560;9.714;2023-06-22T03:48:35;86.60;;;80.30;;
10248;SDS011;5169;50.560;9.714;2023-06-22T03:51:01;86.70;;;80.40;;
10248;SDS011;5169;50.560;9.714;2023-06-22T03:53:34;84.60;;;78.33;;
10248;SDS011;5169;50.560;9.714;2023-06-22T03:56:00;77.47;;;72.03;;
10248;SDS011;5169;50.560;9.714;2023-06-22T03:58:26;86.43;;;80.23;;
10248;SDS011;5169;50.560;9.714;2023-06-22T04:00:52;83.37;;;77.30;;
10248;SDS011;5169;50.560;9.714;2023-06-22T04:03:25;86.53;;;80.50;;
10248;SDS011;5169;50.560;9.714;2023-06-22T04:05:50;80.27;;;74.27;;
10248;SDS011;5169;50.560;9.714;2023-06-22T04:08:17;75.47;;;70.37;;
10248;SDS011;5169;50.560;9.714;2023-06-22T04:10:46;91.33;;;84.83;;
10248;SDS011;5169;50.560;9.714;2023-06-22T04:13:13;89.10;;;82.80;;
10248;SDS011;5169;50.560;9.714;2023-06-22T04:15:47;90.67;;;84.17;;
10248;SDS011;5169;50.560;9.714;2023-06-22T04:18:12;89.63;;;83.43;;
10248;SDS011;5169;50.560;9.714;2023-06-22T04:20:38;80.50;;;74.83;;
10248;SDS011;5169;50.560;9.714;2023-06-22T04:23:12;92.27;;;85.67;;
10248;SDS011;5169;50.560;9.714;2023-06-22T04:25:37;84.87;;;78.97;;
10248;SDS011;5169;50.560;9.714;2023-06-22T04:28:11;95.17;;;88.63;;
10248;SDS011;5169;50.560;9.714;2023-06-22T04:30:37;88.30;;;82.30;;
10248;SDS011;5169;50.560;9.714;2023-06-22T04:33:12;83.90;;;78.23;;
10248;SDS011;5169;50.560;9.714;2023-06-22T04:35:40;96.40;;;89.10;;
10248;SDS011;5169;50.560;9.714;2023-06-22T04:38:15;85.70;;;79.63;;
10248;SDS011;5169;50.560;9.714;2023-06-22T04:40:46;82.03;;;76.33;;
10248;SDS011;5169;50.560;9.714;2023-06-22T04:43:12;100.90;;;93.70;;
10248;SDS011;5169;50.560;9.714;2023-06-22T04:45:37;91.70;;;85.27;;
10248;SDS011;5169;50.560;9.714;2023-06-22T04:48:03;91.50;;;85.30;;
10248;SDS011;5169;50.560;9.714;2023-06-22T04:50:36;81.57;;;76.27;;
10248;SDS011;5169;50.560;9.714;2023-06-22T04:53:04;74.73;;;69.63;;
10248;SDS011;5169;50.560;9.714;2023-06-22T04:55:37;78.93;;;73.73;;
10248;SDS011;5169;50.560;9.714;2023-06-22T04:58:12;95.50;;;88.90;;
10248;SDS011;5169;50.560;9.714;2023-06-22T05:00:38;102.93;;;95.90;;
10248;SDS011;5169;50.560;9.714;2023-06-22T05:03:04;90.80;;;84.70;;
10248;SDS011;5169;50.560;9.714;2023-06-22T05:05:34;87.60;;;81.70;;
10248;SDS011;5169;50.560;9.714;2023-06-22T05:08:00;87.23;;;81.27;;
10248;SDS011;5169;50.560;9.714;2023-06-22T05:10:26;95.87;;;89.37;;
10248;SDS011;5169;50.560;9.714;2023-06-22T05:12:52;97.67;;;91.17;;
10248;SDS011;5169;50.560;9.714;2023-06-22T05:15:24;84.43;;;78.80;;
10248;SDS011;5169;50.560;9.714;2023-06-22T05:17:56;81.07;;;75.63;;
10248;SDS011;5169;50.560;9.714;2023-06-22T05:20:23;77.30;;;72.37;;
10248;SDS011;5169;50.560;9.714;2023-06-22T05:22:48;76.73;;;71.80;;
10248;SDS011;5169;50.560;9.714;2023-06-22T05:25:14;78.47;;;73.27;;
10248;SDS011;5169;50.560;9.714;2023-06-22T05:27:40;79.27;;;74.07;;
10248;SDS011;5169;50.560;9.714;2023-06-22T05:30:11;81.20;;;75.90;;
10248;SDS011;5169;50.560;9.714;2023-06-22T05:32:37;77.57;;;72.57;;
10248;SDS011;5169;50.560;9.714;2023-06-22T05:35:03;78.73;;;73.73;;
10248;SDS011;5169;50.560;9.714;2023-06-22T05:37:33;96.40;;;90.00;;
10248;SDS011;5169;50.560;9.714;2023-06-22T05:39:59;79.93;;;74.63;;
10248;SDS011;5169;50.560;9.714;2023-06-22T05:42:24;83.27;;;77.97;;
10248;SDS011;5169;50.560;9.714;2023-06-22T05:44:51;72.00;;;67.37;;
10248;SDS011;5169;50.560;9.714;2023-06-22T05:47:23;77.77;;;72.77;;
10248;SDS011;5169;50.560;9.714;2023-06-22T05:49:49;71.07;;;66.67;;
10248;SDS011;5169;50.560;9.714;2023-06-22T05:52:21;72.37;;;67.87;;
10248;SDS011;5169;50.560;9.714;2023-06-22T05:54:47;63.30;;;59.20;;
10248;SDS011;5169;50.560;9.714;2023-06-22T05:57:14;70.13;;;65.80;;
10248;SDS011;5169;50.560;9.714;2023-06-22T05:59:40;53.17;;;49.83;;
10248;SDS011;5169;50.560;9.714;2023-06-22T06:02:06;59.50;;;55.80;;
10248;SDS011;5169;50.560;9.714;2023-06-22T06:04:40;55.63;;;51.97;;
10248;SDS011;5169;50.560;9.714;2023-06-22T06:07:06;53.20;;;49.93;;
10248;SDS011;5169;50.560;9.714;2023-06-22T06:09:38;43.30;;;40.50;;
10248;SDS011;5169;50.560;9.714;2023-06-22T06:12:03;47.97;;;44.87;;
10248;SDS011;5169;50.560;9.714;2023-06-22T06:14:29;45.57;;;42.73;;
10248;SDS011;5169;50.560;9.714;2023-06-22T06:16:58;36.10;;;33.93;;
10248;SDS011;5169;50.560;9.714;2023-06-22T06:19:23;36.27;;;33.77;;
10248;SDS011;5169;50.560;9.714;2023-06-22T06:21:49;49.17;;;45.97;;
10248;SDS011;5169;50.560;9.714;2023-06-22T06:24:15;45.10;;;42.20;;
10248;SDS011;5169;50.560;9.714;2023-06-22T06:26:40;42.83;;;40.40;;
10248;SDS011;5169;50.560;9.714;2023-06-22T06:29:06;38.57;;;36.13;;
10248;SDS011;5169;50.560;9.714;2023-06-22T06:31:35;45.17;;;42.43;;
10248;SDS011;5169;50.560;9.714;2023-06-22T06:34:01;43.90;;;41.27;;
10248;SDS011;5169;50.560;9.714;2023-06-22T06:36:28;53.35;;;50.30;;
10248;SDS011;5169;50.560;9.714;2023-06-22T06:38:54;46.72;;;44.05;;
10248;SDS011;5169;50.560;9.714;2023-06-22T06:41:26;41.33;;;38.78;;
10248;SDS011;5169;50.560;9.714;2023-06-22T06:43:51;42.17;;;39.63;;
10248;SDS011;5169;50.560;9.714;2023-06-22T06:46:17;35.47;;;33.42;;
10248;SDS011;5169;50.560;9.714;2023-06-22T06:48:50;31.92;;;30.05;;
10248;SDS011;5169;50.560;9.714;2023-06-22T06:51:15;46.92;;;43.78;;
10248;SDS011;5169;50.560;9.714;2023-06-22T06:53:41;23.73;;;22.08;;
10248;SDS011;5169;50.560;9.714;2023-06-22T06:56:06;27.67;;;25.98;;
10248;SDS011;5169;50.560;9.714;2023-06-22T06:58:38;28.10;;;26.25;;
10248;SDS011;5169;50.560;9.714;2023-06-22T07:01:16;20.73;;;19.35;;
10248;SDS011;5169;50.560;9.714;2023-06-22T07:03:41;23.30;;;21.70;;
10248;SDS011;5169;50.560;9.714;2023-06-22T07:06:08;29.10;;;27.30;;
10248;SDS011;5169;50.560;9.714;2023-06-22T07:08:36;21.55;;;19.73;;
10248;SDS011;5169;50.560;9.714;2023-06-22T07:11:04;28.80;;;26.67;;
10248;SDS011;5169;50.560;9.714;2023-06-22T07:13:30;29.90;;;27.67;;
10248;SDS011;5169;50.560;9.714;2023-06-22T07:15:59;26.60;;;24.90;;
10248;SDS011;5169;50.560;9.714;2023-06-22T07:18:25;29.67;;;27.83;;
10248;SDS011;5169;50.560;9.714;2023-06-22T07:20:51;46.93;;;43.73;;
10248;SDS011;5169;50.560;9.714;2023-06-22T07:23:24;41.33;;;38.83;;
10248;SDS011;5169;50.560;9.714;2023-06-22T07:25:50;38.83;;;36.35;;
10248;SDS011;5169;50.560;9.714;2023-06-22T07:28:16;34.15;;;32.05;;
10248;SDS011;5169;50.560;9.714;2023-06-22T07:30:41;24.85;;;23.05;;
10248;SDS011;5169;50.560;9.714;2023-06-22T07:33:07;32.65;;;30.45;;
10248;SDS011;5169;50.560;9.714;2023-06-22T07:35:39;21.08;;;19.40;;
10248;SDS011;5169;50.560;9.714;2023-06-22T07:38:05;20.95;;;19.40;;
10248;SDS011;5169;50.560;9.714;2023-06-22T07:40:39;25.13;;;23.17;;
10248;SDS011;5169;50.560;9.714;2023-06-22T07:43:14;20.23;;;18.58;;
10248;SDS011;5169;50.560;9.714;2023-06-22T07:45:39;17.88;;;16.42;;
10248;SDS011;5169;50.560;9.714;2023-06-22T07:48:07;20.52;;;19.08;;
10248;SDS011;5169;50.560;9.714;2023-06-22T07:50:35;21.20;;;19.50;;
10248;SDS011;5169;50.560;9.714;2023-06-22T07:53:01;27.08;;;25.20;;
10248;SDS011;5169;50.560;9.714;2023-06-22T07:55:26;21.63;;;19.55;;
10248;SDS011;5169;50.560;9.714;2023-06-22T07:57:54;16.63;;;15.50;;
10248;SDS011;5169;50.560;9.714;2023-06-22T08:00:28;15.10;;;13.95;;
10248;SDS011;5169;50.560;9.714;2023-06-22T08:02:54;16.65;;;15.45;;
10248;SDS011;5169;50.560;9.714;2023-06-22T08:05:23;19.20;;;17.75;;
10248;SDS011;5169;50.560;9.714;2023-06-22T08:07:51;17.80;;;16.38;;
10248;SDS011;5169;50.560;9.714;2023-06-22T08:10:17;19.58;;;18.08;;
10248;SDS011;5169;50.560;9.714;2023-06-22T08:12:42;13.23;;;12.18;;
10248;SDS011;5169;50.560;9.714;2023-06-22T08:15:25;17.48;;;15.88;;
10248;SDS011;5169;50.560;9.714;2023-06-22T08:17:54;18.10;;;16.70;;
10248;SDS011;5169;50.560;9.714;2023-06-22T08:20:26;14.90;;;13.63;;
10248;SDS011;5169;50.560;9.714;2023-06-22T08:22:53;13.45;;;12.38;;
10248;SDS011;5169;50.560;9.714;2023-06-22T08:25:31;13.60;;;12.48;;
10248;SDS011;5169;50.560;9.714;2023-06-22T08:28:03;12.65;;;11.75;;
10248;SDS011;5169;50.560;9.714;2023-06-22T08:30:35;16.58;;;15.45;;
10248;SDS011;5169;50.560;9.714;2023-06-22T08:33:03;13.48;;;12.23;;
10248;SDS011;5169;50.560;9.714;2023-06-22T08:35:31;14.82;;;13.80;;
10248;SDS011;5169;50.560;9.714;2023-06-22T08:37:59;13.82;;;12.77;;
10248;SDS011;5169;50.560;9.714;2023-06-22T08:40:27;12.65;;;11.75;;
10248;SDS011;5169;50.560;9.714;2023-06-22T08:42:54;13.80;;;12.48;;
10248;SDS011;5169;50.560;9.714;2023-06-22T08:45:26;11.15;;;10.23;;
10248;SDS011;5169;50.560;9.714;2023-06-22T08:47:52;15.63;;;14.27;;
10248;SDS011;5169;50.560;9.714;2023-06-22T08:50:26;13.10;;;11.98;;
10248;SDS011;5169;50.560;9.714;2023-06-22T08:52:54;12.63;;;11.40;;
10248;SDS011;5169;50.560;9.714;2023-06-22T08:55:26;12.88;;;11.63;;
10248;SDS011;5169;50.560;9.714;2023-06-22T08:57:52;11.02;;;10.07;;
10248;SDS011;5169;50.560;9.714;2023-06-22T09:00:18;12.27;;;11.48;;
10248;SDS011;5169;50.560;9.714;2023-06-22T09:02:48;10.75;;;9.65;;
10248;SDS011;5169;50.560;9.714;2023-06-22T09:05:14;12.52;;;11.60;;
10248;SDS011;5169;50.560;9.714;2023-06-22T09:07:40;11.35;;;10.23;;
10248;SDS011;5169;50.560;9.714;2023-06-22T09:10:11;10.48;;;9.70;;
10248;SDS011;5169;50.560;9.714;2023-06-22T09:12:36;11.07;;;10.07;;
10248;SDS011;5169;50.560;9.714;2023-06-22T09:15:02;10.75;;;9.75;;
10248;SDS011;5169;50.560;9.714;2023-06-22T09:17:28;10.05;;;9.13;;
10248;SDS011;5169;50.560;9.714;2023-06-22T09:19:54;9.18;;;8.48;;
10248;SDS011;5169;50.560;9.714;2023-06-22T09:22:23;13.77;;;12.85;;
10248;SDS011;5169;50.560;9.714;2023-06-22T09:24:53;12.25;;;11.43;;
10248;SDS011;5169;50.560;9.714;2023-06-22T09:27:28;15.35;;;14.23;;
10248;SDS011;5169;50.560;9.714;2023-06-22T09:29:53;15.73;;;14.35;;
10248;SDS011;5169;50.560;9.714;2023-06-22T09:32:19;16.40;;;15.27;;
10248;SDS011;5169;50.560;9.714;2023-06-22T09:34:53;12.75;;;11.85;;
10248;SDS011;5169;50.560;9.714;2023-06-22T09:37:26;11.45;;;10.30;;
10248;SDS011;5169;50.560;9.714;2023-06-22T09:39:52;14.05;;;13.05;;
10248;SDS011;5169;50.560;9.714;2023-06-22T09:42:25;14.88;;;13.88;;
10248;SDS011;5169;50.560;9.714;2023-06-22T09:44:50;17.90;;;16.55;;
10248;SDS011;5169;50.560;9.714;2023-06-22T09:47:18;21.45;;;20.00;;
10248;SDS011;5169;50.560;9.714;2023-06-22T09:49:49;18.08;;;16.77;;
10248;SDS011;5169;50.560;9.714;2023-06-22T09:52:15;11.05;;;10.13;;
10248;SDS011;5169;50.560;9.714;2023-06-22T09:54:41;13.15;;;12.20;;
10248;SDS011;5169;50.560;9.714;2023-06-22T09:57:14;10.20;;;9.40;;
10248;SDS011;5169;50.560;9.714;2023-06-22T09:59:40;9.45;;;8.60;;
10248;SDS011;5169;50.560;9.714;2023-06-22T10:02:06;10.52;;;9.63;;
10248;SDS011;5169;50.560;9.714;2023-06-22T10:04:35;11.52;;;10.73;;
10248;SDS011;5169;50.560;9.714;2023-06-22T10:07:01;9.75;;;8.70;;
10248;SDS011;5169;50.560;9.714;2023-06-22T10:09:27;9.20;;;8.13;;
10248;SDS011;5169;50.560;9.714;2023-06-22T10:11:53;10.32;;;9.57;;
10248;SDS011;5169;50.560;9.714;2023-06-22T10:14:19;13.70;;;12.60;;
10248;SDS011;5169;50.560;9.714;2023-06-22T10:16:48;10.45;;;9.57;;
10248;SDS011;5169;50.560;9.714;2023-06-22T10:19:16;14.05;;;12.85;;
10248;SDS011;5169;50.560;9.714;2023-06-22T10:21:41;11.75;;;10.80;;
10248;SDS011;5169;50.560;9.714;2023-06-22T10:24:07;11.35;;;10.35;;
10248;SDS011;5169;50.560;9.714;2023-06-22T10:26:36;12.07;;;10.93;;
10248;SDS011;5169;50.560;9.714;2023-06-22T10:29:02;10.98;;;10.18;;
10248;SDS011;5169;50.560;9.714;2023-06-22T10:31:30;11.43;;;10.52;;
10248;SDS011;5169;50.560;9.714;2023-06-22T10:33:55;13.15;;;12.25;;
10248;SDS011;5169;50.560;9.714;2023-06-22T10:36:24;10.43;;;9.70;;
10248;SDS011;5169;50.560;9.714;2023-06-22T10:38:50;16.80;;;15.80;;
10248;SDS011;5169;50.560;9.714;2023-06-22T10:41:15;18.02;;;17.02;;
10248;SDS011;5169;50.560;9.714;2023-06-22T10:43:42;14.18;;;12.80;;
10248;SDS011;5169;50.560;9.714;2023-06-22T10:46:07;10.00;;;9.13;;
10248;SDS011;5169;50.560;9.714;2023-06-22T10:48:36;11.70;;;10.90;;
10248;SDS011;5169;50.560;9.714;2023-06-22T10:51:01;12.90;;;11.88;;
10248;SDS011;5169;50.560;9.714;2023-06-22T10:53:27;10.18;;;9.40;;
10248;SDS011;5169;50.560;9.714;2023-06-22T10:55:52;13.70;;;12.73;;
10248;SDS011;5169;50.560;9.714;2023-06-22T10:58:19;13.48;;;12.50;;
10248;SDS011;5169;50.560;9.714;2023-06-22T11:00:51;15.50;;;14.27;;
10248;SDS011;5169;50.560;9.714;2023-06-22T11:03:16;15.10;;;13.82;;
10248;SDS011;5169;50.560;9.714;2023-06-22T11:05:42;13.90;;;12.80;;
10248;SDS011;5169;50.560;9.714;2023-06-22T11:08:07;10.35;;;9.30;;
10248;SDS011;5169;50.560;9.714;2023-06-22T11:10:36;11.05;;;10.18;;
10248;SDS011;5169;50.560;9.714;2023-06-22T11:13:02;10.02;;;9.35;;
10248;SDS011;5169;50.560;9.714;2023-06-22T11:15:29;8.27;;;7.30;;
10248;SDS011;5169;50.560;9.714;2023-06-22T11:17:54;9.73;;;8.90;;
10248;SDS011;5169;50.560;9.714;2023-06-22T11:20:20;9.07;;;8.38;;
10248;SDS011;5169;50.560;9.714;2023-06-22T11:22:49;10.20;;;9.30;;
10248;SDS011;5169;50.560;9.714;2023-06-22T11:25:14;8.45;;;7.82;;
10248;SDS011;5169;50.560;9.714;2023-06-22T11:27:40;8.02;;;7.43;;
10248;SDS011;5169;50.560;9.714;2023-06-22T11:30:05;7.60;;;6.88;;
10248;SDS011;5169;50.560;9.714;2023-06-22T11:32:32;9.68;;;8.88;;
10248;SDS011;5169;50.560;9.714;2023-06-22T11:35:05;9.95;;;9.18;;
10248;SDS011;5169;50.560;9.714;2023-06-22T11:37:30;8.00;;;7.47;;
10248;SDS011;5169;50.560;9.714;2023-06-22T11:39:56;8.77;;;8.05;;
10248;SDS011;5169;50.560;9.714;2023-06-22T11:42:37;12.07;;;11.23;;
10248;SDS011;5169;50.560;9.714;2023-06-22T11:45:08;12.63;;;11.70;;
10248;SDS011;5169;50.560;9.714;2023-06-22T11:47:43;12.23;;;11.32;;
10248;SDS011;5169;50.560;9.714;2023-06-22T11:50:12;7.97;;;7.38;;
10248;SDS011;5169;50.560;9.714;2023-06-22T11:52:38;9.02;;;8.43;;
10248;SDS011;5169;50.560;9.714;2023-06-22T11:55:03;10.02;;;9.23;;
10248;SDS011;5169;50.560;9.714;2023-06-22T11:57:38;9.75;;;9.05;;
10248;SDS011;5169;50.560;9.714;2023-06-22T12:00:26;10.88;;;9.88;;
10248;SDS011;5169;50.560;9.714;2023-06-22T12:02:54;11.70;;;10.65;;
10248;SDS011;5169;50.560;9.714;2023-06-22T12:05:27;10.77;;;10.02;;
10248;SDS011;5169;50.560;9.714;2023-06-22T12:07:53;11.13;;;10.23;;
10248;SDS011;5169;50.560;9.714;2023-06-22T12:10:18;10.27;;;9.38;;
10248;SDS011;5169;50.560;9.714;2023-06-22T12:12:44;10.20;;;9.32;;
10248;SDS011;5169;50.560;9.714;2023-06-22T12:15:12;12.07;;;11.23;;
10248;SDS011;5169;50.560;9.714;2023-06-22T12:17:38;15.27;;;13.90;;
10248;SDS011;5169;50.560;9.714;2023-06-22T12:20:05;13.25;;;12.27;;
10248;SDS011;5169;50.560;9.714;2023-06-22T12:22:40;15.55;;;14.30;;
10248;SDS011;5169;50.560;9.714;2023-06-22T12:25:06;18.35;;;17.13;;
10248;SDS011;5169;50.560;9.714;2023-06-22T12:27:36;17.45;;;16.25;;
10248;SDS011;5169;50.560;9.714;2023-06-22T12:30:04;17.63;;;16.15;;
10248;SDS011;5169;50.560;9.714;2023-06-22T12:32:30;11.75;;;10.85;;
10248;SDS011;5169;50.560;9.714;2023-06-22T12:34:56;12.20;;;11.32;;
10248;SDS011;5169;50.560;9.714;2023-06-22T12:37:28;12.57;;;11.38;;
10248;SDS011;5169;50.560;9.714;2023-06-22T12:39:54;11.73;;;10.55;;
10248;SDS011;5169;50.560;9.714;2023-06-22T12:42:19;10.25;;;9.32;;
10248;SDS011;5169;50.560;9.714;2023-06-22T12:44:53;11.45;;;10.25;;
10248;SDS011;5169;50.560;9.714;2023-06-22T12:47:26;12.48;;;11.38;;
10248;SDS011;5169;50.560;9.714;2023-06-22T12:49:52;12.98;;;12.02;;
10248;SDS011;5169;50.560;9.714;2023-06-22T12:52:18;11.63;;;10.60;;
10248;SDS011;5169;50.560;9.714;2023-06-22T12:54:43;12.57;;;11.57;;
10248;SDS011;5169;50.560;9.714;2023-06-22T12:57:17;12.10;;;11.07;;
10248;SDS011;5169;50.560;9.714;2023-06-22T12:59:48;11.40;;;10.43;;
10248;SDS011;5169;50.560;9.714;2023-06-22T13:02:13;12.05;;;10.40;;
10248;SDS011;5169;50.560;9.714;2023-06-22T13:04:39;8.65;;;7.85;;
10248;SDS011;5169;50.560;9.714;2023-06-22T13:07:05;12.30;;;9.82;;
10248;SDS011;5169;50.560;9.714;2023-06-22T13:09:30;11.88;;;10.88;;
10248;SDS011;5169;50.560;9.714;2023-06-22T13:11:56;10.93;;;10.10;;
10248;SDS011;5169;50.560;9.714;2023-06-22T13:14:24;12.25;;;11.25;;
10248;SDS011;5169;50.560;9.714;2023-06-22T13:16:50;10.80;;;9.73;;
10248;SDS011;5169;50.560;9.714;2023-06-22T13:19:15;14.65;;;8.77;;
10248;SDS011;5169;50.560;9.714;2023-06-22T13:21:41;10.18;;;8.35;;
10248;SDS011;5169;50.560;9.714;2023-06-22T13:24:07;11.68;;;9.18;;
10248;SDS011;5169;50.560;9.714;2023-06-22T13:26:39;10.57;;;9.35;;
10248;SDS011;5169;50.560;9.714;2023-06-22T13:29:05;10.10;;;9.15;;
10248;SDS011;5169;50.560;9.714;2023-06-22T13:31:39;12.30;;;9.88;;
10248;SDS011;5169;50.560;9.714;2023-06-22T13:34:05;8.48;;;7.70;;
10248;SDS011;5169;50.560;9.714;2023-06-22T13:36:31;8.07;;;7.05;;
10248;SDS011;5169;50.560;9.714;2023-06-22T13:39:00;8.05;;;7.25;;
10248;SDS011;5169;50.560;9.714;2023-06-22T13:41:28;8.27;;;7.47;;
10248;SDS011;5169;50.560;9.714;2023-06-22T13:43:56;8.82;;;7.95;;
10248;SDS011;5169;50.560;9.714;2023-06-22T13:46:31;12.13;;;11.15;;
10248;SDS011;5169;50.560;9.714;2023-06-22T13:49:04;11.68;;;10.70;;
10248;SDS011;5169;50.560;9.714;2023-06-22T13:51:39;10.50;;;9.40;;
10248;SDS011;5169;50.560;9.714;2023-06-22T13:54:05;9.05;;;8.15;;
10248;SDS011;5169;50.560;9.714;2023-06-22T13:56:30;12.25;;;9.02;;
10248;SDS011;5169;50.560;9.714;2023-06-22T13:59:04;11.85;;;10.60;;
10248;SDS011;5169;50.560;9.714;2023-06-22T14:01:37;13.75;;;11.52;;
10248;SDS011;5169;50.560;9.714;2023-06-22T14:04:08;13.77;;;12.15;;
10248;SDS011;5169;50.560;9.714;2023-06-22T14:06:41;13.15;;;12.05;;
10248;SDS011;5169;50.560;9.714;2023-06-22T14:09:06;11.60;;;10.40;;
10248;SDS011;5169;50.560;9.714;2023-06-22T14:11:32;12.45;;;11.20;;
10248;SDS011;5169;50.560;9.714;2023-06-22T14:13:57;16.48;;;14.98;;
10248;SDS011;5169;50.560;9.714;2023-06-22T14:16:32;13.23;;;11.82;;
10248;SDS011;5169;50.560;9.714;2023-06-22T14:19:05;15.38;;;11.52;;
10248;SDS011;5169;50.560;9.714;2023-06-22T14:21:33;10.82;;;9.82;;
10248;SDS011;5169;50.560;9.714;2023-06-22T14:24:01;12.80;;;10.82;;
10248;SDS011;5169;50.560;9.714;2023-06-22T14:26:27;11.98;;;10.02;;
10248;SDS011;5169;50.560;9.714;2023-06-22T14:28:53;11.70;;;10.57;;
10248;SDS011;5169;50.560;9.714;2023-06-22T14:31:18;13.02;;;11.45;;
10248;SDS011;5169;50.560;9.714;2023-06-22T14:33:53;14.25;;;11.30;;
10248;SDS011;5169;50.560;9.714;2023-06-22T14:36:19;10.48;;;9.27;;
10248;SDS011;5169;50.560;9.714;2023-06-22T14:38:50;13.10;;;11.20;;
10248;SDS011;5169;50.560;9.714;2023-06-22T14:41:15;11.68;;;10.48;;
10248;SDS011;5169;50.560;9.714;2023-06-22T14:43:50;11.85;;;10.63;;
10248;SDS011;5169;50.560;9.714;2023-06-22T14:46:18;12.35;;;10.25;;
10248;SDS011;5169;50.560;9.714;2023-06-22T14:48:52;10.55;;;9.55;;
10248;SDS011;5169;50.560;9.714;2023-06-22T14:51:18;10.40;;;9.35;;
10248;SDS011;5169;50.560;9.714;2023-06-22T14:53:44;12.25;;;10.40;;
10248;SDS011;5169;50.560;9.714;2023-06-22T14:56:11;11.10;;;10.02;;